sensor_id;sensor_type;location;lat;lon;timestamp;pressure;altitude;pressure_sealevel;temperature;humidity
75051;BME280;63628;47.656;11.310;2023-03-23T00:02:11;94376.91;;;10.39;69.10
75051;BME280;63628;47.656;11.310;2023-03-23T00:04:36;94375.00;;;11.28;65.93
75051;BME280;63628;47.656;11.310;2023-03-23T00:07:03;94368.63;;;11.51;65.61
75051;BME280;63628;47.656;11.310;2023-03-23T00:09:29;94369.47;;;11.57;62.94
75051;BME280;63628;47.656;11.310;2023-03-23T00:11:55;94370.06;;;10.09;66.75
75051;BME280;63628;47.656;11.310;2023-03-23T00:14:22;94375.25;;;7.90;69.18
75051;BME280;63628;47.656;11.310;2023-03-23T00:16:49;94373.72;;;8.71;66.66
75051;BME280;63628;47.656;11.310;2023-03-23T00:19:16;94374.19;;;10.34;69.25
75051;BME280;63628;47.656;11.310;2023-03-23T00:21:44;94379.97;;;11.25;66.00
75051;BME280;63628;47.656;11.310;2023-03-23T00:24:12;94372.72;;;11.37;65.74
75051;BME280;63628;47.656;11.310;2023-03-23T00:26:39;94372.81;;;11.47;65.27
75051;BME280;63628;47.656;11.310;2023-03-23T00:29:06;94373.94;;;11.51;65.50
75051;BME280;63628;47.656;11.310;2023-03-23T00:31:33;94380.16;;;8.75;70.23
75051;BME280;63628;47.656;11.310;2023-03-23T00:34:01;94382.56;;;7.58;72.34
75051;BME280;63628;47.656;11.310;2023-03-23T00:36:29;94382.16;;;8.26;70.61
75051;BME280;63628;47.656;11.310;2023-03-23T00:38:55;94372.41;;;10.73;68.03
75051;BME280;63628;47.656;11.310;2023-03-23T00:41:27;94366.44;;;11.21;66.26
75051;BME280;63628;47.656;11.310;2023-03-23T00:43:54;94370.59;;;10.57;60.64
75051;BME280;63628;47.656;11.310;2023-03-23T00:46:20;94370.59;;;10.57;67.93
75051;BME280;63628;47.656;11.310;2023-03-23T00:48:46;94362.44;;;11.19;65.86
75051;BME280;63628;47.656;11.310;2023-03-23T00:51:12;94360.22;;;11.32;65.27
75051;BME280;63628;47.656;11.310;2023-03-23T00:53:38;94357.56;;;11.32;64.94
75051;BME280;63628;47.656;11.310;2023-03-23T00:56:04;94358.34;;;11.33;65.36
75051;BME280;63628;47.656;11.310;2023-03-23T00:58:31;94361.50;;;10.36;67.45
75051;BME280;63628;47.656;11.310;2023-03-23T01:00:57;94349.19;;;11.19;66.02
75051;BME280;63628;47.656;11.310;2023-03-23T01:03:22;94362.81;;;7.79;69.08
75051;BME280;63628;47.656;11.310;2023-03-23T01:05:51;94351.25;;;10.39;68.63
75051;BME280;63628;47.656;11.310;2023-03-23T01:08:17;94347.13;;;11.04;66.41
75051;BME280;63628;47.656;11.310;2023-03-23T01:10:45;94343.09;;;11.18;65.49
75051;BME280;63628;47.656;11.310;2023-03-23T01:13:11;94351.63;;;10.14;63.29
75051;BME280;63628;47.656;11.310;2023-03-23T01:15:39;94334.06;;;10.97;66.11
75051;BME280;63628;47.656;11.310;2023-03-23T01:18:05;94335.06;;;8.18;71.63
75051;BME280;63628;47.656;11.310;2023-03-23T01:20:31;94332.19;;;10.54;67.47
75051;BME280;63628;47.656;11.310;2023-03-23T01:22:56;94332.78;;;8.34;70.12
75051;BME280;63628;47.656;11.310;2023-03-23T01:25:26;94339.69;;;6.91;76.32
75051;BME280;63628;47.656;11.310;2023-03-23T01:27:51;94336.53;;;8.14;71.73
75051;BME280;63628;47.656;11.310;2023-03-23T01:30:17;94331.44;;;8.54;74.54
75051;BME280;63628;47.656;11.310;2023-03-23T01:32:44;94318.09;;;10.48;67.78
75051;BME280;63628;47.656;11.310;2023-03-23T01:35:12;94328.59;;;10.82;66.33
75051;BME280;63628;47.656;11.310;2023-03-23T01:37:37;94316.53;;;10.91;66.12
75051;BME280;63628;47.656;11.310;2023-03-23T01:40:03;94312.88;;;10.97;66.27
75051;BME280;63628;47.656;11.310;2023-03-23T01:42:32;94311.28;;;10.96;65.64
75051;BME280;63628;47.656;11.310;2023-03-23T01:45:22;94308.16;;;10.99;65.76
75051;BME280;63628;47.656;11.310;2023-03-23T01:47:52;94312.34;;;10.95;65.58
75051;BME280;63628;47.656;11.310;2023-03-23T01:50:21;94324.31;;;9.75;64.69
75051;BME280;63628;47.656;11.310;2023-03-23T01:52:49;94324.25;;;10.37;61.53
75051;BME280;63628;47.656;11.310;2023-03-23T01:55:16;94312.28;;;8.47;73.00
75051;BME280;63628;47.656;11.310;2023-03-23T01:57:42;94317.59;;;9.84;69.63
75051;BME280;63628;47.656;11.310;2023-03-23T02:00:10;94310.38;;;10.13;67.97
75051;BME280;63628;47.656;11.310;2023-03-23T02:02:41;94309.44;;;7.72;71.78
75051;BME280;63628;47.656;11.310;2023-03-23T02:05:11;94312.75;;;8.56;74.26
75051;BME280;63628;47.656;11.310;2023-03-23T02:07:39;94310.78;;;10.22;67.69
75051;BME280;63628;47.656;11.310;2023-03-23T02:10:05;94304.25;;;10.63;66.50
75051;BME280;63628;47.656;11.310;2023-03-23T02:12:30;94303.91;;;9.59;69.59
75051;BME280;63628;47.656;11.310;2023-03-23T02:14:56;94311.38;;;7.65;71.90
75051;BME280;63628;47.656;11.310;2023-03-23T02:17:29;94320.53;;;7.03;78.43
75051;BME280;63628;47.656;11.310;2023-03-23T02:20:10;94313.66;;;8.62;73.34
75051;BME280;63628;47.656;11.310;2023-03-23T02:23:12;94304.94;;;10.03;69.02
75051;BME280;63628;47.656;11.310;2023-03-23T02:25:59;94312.47;;;8.22;70.16
75051;BME280;63628;47.656;11.310;2023-03-23T02:28:49;94311.81;;;9.88;68.28
75051;BME280;63628;47.656;11.310;2023-03-23T02:31:29;94311.38;;;10.41;67.49
75051;BME280;63628;47.656;11.310;2023-03-23T02:34:07;94317.00;;;8.45;69.02
75051;BME280;63628;47.656;11.310;2023-03-23T02:36:37;94311.16;;;9.80;68.49
75051;BME280;63628;47.656;11.310;2023-03-23T02:39:08;94315.81;;;9.90;63.74
75051;BME280;63628;47.656;11.310;2023-03-23T02:41:40;94319.22;;;9.29;70.01
75051;BME280;63628;47.656;11.310;2023-03-23T02:44:08;94311.78;;;9.71;68.46
75051;BME280;63628;47.656;11.310;2023-03-23T02:46:35;94313.41;;;10.39;67.10
75051;BME280;63628;47.656;11.310;2023-03-23T02:49:04;94311.44;;;10.29;62.98
75051;BME280;63628;47.656;11.310;2023-03-23T02:51:32;94321.44;;;9.20;69.62
75051;BME280;63628;47.656;11.310;2023-03-23T02:53:59;94322.72;;;10.08;62.80
75051;BME280;63628;47.656;11.310;2023-03-23T02:56:27;94326.97;;;9.92;64.89
75051;BME280;63628;47.656;11.310;2023-03-23T02:58:53;94325.84;;;10.38;66.53
75051;BME280;63628;47.656;11.310;2023-03-23T03:04:28;94324.66;;;10.46;66.39
75051;BME280;63628;47.656;11.310;2023-03-23T03:07:06;94322.66;;;10.53;66.42
75051;BME280;63628;47.656;11.310;2023-03-23T03:09:42;94322.63;;;10.36;62.80
75051;BME280;63628;47.656;11.310;2023-03-23T03:12:14;94323.06;;;10.45;66.59
75051;BME280;63628;47.656;11.310;2023-03-23T03:14:46;94330.56;;;9.86;63.21
75051;BME280;63628;47.656;11.310;2023-03-23T03:17:20;94326.50;;;9.67;68.40
75051;BME280;63628;47.656;11.310;2023-03-23T03:19:50;94329.41;;;9.37;67.99
75051;BME280;63628;47.656;11.310;2023-03-23T03:22:19;94324.97;;;9.26;65.49
75051;BME280;63628;47.656;11.310;2023-03-23T03:24:47;94332.75;;;10.23;66.66
75051;BME280;63628;47.656;11.310;2023-03-23T03:27:16;94332.28;;;10.42;65.85
75051;BME280;63628;47.656;11.310;2023-03-23T03:29:46;94327.00;;;10.42;65.72
75051;BME280;63628;47.656;11.310;2023-03-23T03:32:17;94327.31;;;10.46;66.11
75051;BME280;63628;47.656;11.310;2023-03-23T03:34:44;94333.50;;;9.16;69.66
75051;BME280;63628;47.656;11.310;2023-03-23T03:37:11;94341.63;;;10.16;67.09
75051;BME280;63628;47.656;11.310;2023-03-23T03:39:37;94352.19;;;6.78;72.72
75051;BME280;63628;47.656;11.310;2023-03-23T03:42:03;94346.84;;;7.92;72.42
75051;BME280;63628;47.656;11.310;2023-03-23T03:44:29;94336.91;;;9.73;68.16
75051;BME280;63628;47.656;11.310;2023-03-23T03:46:54;94338.72;;;10.18;66.53
75051;BME280;63628;47.656;11.310;2023-03-23T03:49:20;94338.34;;;10.26;66.20
75051;BME280;63628;47.656;11.310;2023-03-23T03:51:47;94339.47;;;10.30;66.59
75051;BME280;63628;47.656;11.310;2023-03-23T03:54:14;94350.59;;;7.85;71.51
75051;BME280;63628;47.656;11.310;2023-03-23T03:56:41;94345.19;;;9.77;67.91
75051;BME280;63628;47.656;11.310;2023-03-23T03:59:07;94344.19;;;10.11;67.28
75051;BME280;63628;47.656;11.310;2023-03-23T04:01:33;94352.88;;;10.24;66.32
75051;BME280;63628;47.656;11.310;2023-03-23T04:03:59;94343.16;;;10.29;66.63
75051;BME280;63628;47.656;11.310;2023-03-23T04:06:24;94345.16;;;9.60;67.75
75051;BME280;63628;47.656;11.310;2023-03-23T04:08:53;94341.63;;;10.16;66.75
75051;BME280;63628;47.656;11.310;2023-03-23T04:11:20;94349.25;;;8.06;66.87
75051;BME280;63628;47.656;11.310;2023-03-23T04:13:45;94344.16;;;9.78;67.60
75051;BME280;63628;47.656;11.310;2023-03-23T04:16:10;94351.50;;;8.67;64.21
75051;BME280;63628;47.656;11.310;2023-03-23T04:18:36;94356.47;;;9.72;68.33
75051;BME280;63628;47.656;11.310;2023-03-23T04:21:03;94347.06;;;9.65;65.26
75051;BME280;63628;47.656;11.310;2023-03-23T04:23:30;94352.97;;;8.63;64.74
75051;BME280;63628;47.656;11.310;2023-03-23T04:25:58;94363.56;;;9.83;66.91
75051;BME280;63628;47.656;11.310;2023-03-23T04:28:26;94355.81;;;10.10;65.94
75051;BME280;63628;47.656;11.310;2023-03-23T04:30:53;94359.22;;;8.97;63.46
75051;BME280;63628;47.656;11.310;2023-03-23T04:33:19;94356.06;;;8.83;70.72
75051;BME280;63628;47.656;11.310;2023-03-23T04:35:46;94353.28;;;9.42;62.32
75051;BME280;63628;47.656;11.310;2023-03-23T04:38:14;94348.72;;;9.82;67.79
75051;BME280;63628;47.656;11.310;2023-03-23T04:40:41;94352.41;;;8.38;66.29
75051;BME280;63628;47.656;11.310;2023-03-23T04:43:07;94350.75;;;7.60;73.85
75051;BME280;63628;47.656;11.310;2023-03-23T04:45:34;94350.09;;;8.41;71.97
75051;BME280;63628;47.656;11.310;2023-03-23T04:48:02;94348.66;;;9.49;66.64
75051;BME280;63628;47.656;11.310;2023-03-23T04:50:31;94348.13;;;9.35;64.75
75051;BME280;63628;47.656;11.310;2023-03-23T04:52:58;94348.31;;;9.17;68.25
75051;BME280;63628;47.656;11.310;2023-03-23T04:55:29;94355.94;;;8.43;71.38
75051;BME280;63628;47.656;11.310;2023-03-23T04:57:55;94355.00;;;9.65;67.58
75051;BME280;63628;47.656;11.310;2023-03-23T05:00:21;94348.81;;;9.88;66.16
75051;BME280;63628;47.656;11.310;2023-03-23T05:02:48;94358.44;;;9.65;61.66
75051;BME280;63628;47.656;11.310;2023-03-23T05:05:17;94348.25;;;9.85;66.64
75051;BME280;63628;47.656;11.310;2023-03-23T05:07:43;94344.25;;;9.26;63.77
75051;BME280;63628;47.656;11.310;2023-03-23T05:10:10;94347.22;;;7.66;68.53
75051;BME280;63628;47.656;11.310;2023-03-23T05:12:37;94346.78;;;7.39;75.15
75051;BME280;63628;47.656;11.310;2023-03-23T05:15:03;94344.34;;;8.91;64.12
75051;BME280;63628;47.656;11.310;2023-03-23T05:17:29;94359.78;;;6.24;75.10
75051;BME280;63628;47.656;11.310;2023-03-23T05:19:56;94353.16;;;8.15;73.21
75051;BME280;63628;47.656;11.310;2023-03-23T05:22:22;94349.41;;;9.33;68.26
75051;BME280;63628;47.656;11.310;2023-03-23T05:24:49;94349.63;;;9.60;67.40
75051;BME280;63628;47.656;11.310;2023-03-23T05:27:17;94352.84;;;8.81;65.03
75051;BME280;63628;47.656;11.310;2023-03-23T05:29:44;94354.34;;;9.58;67.07
75051;BME280;63628;47.656;11.310;2023-03-23T05:32:11;94351.66;;;9.69;67.18
75051;BME280;63628;47.656;11.310;2023-03-23T05:34:37;94357.28;;;7.27;72.94
75051;BME280;63628;47.656;11.310;2023-03-23T05:37:04;94352.91;;;8.98;69.67
75051;BME280;63628;47.656;11.310;2023-03-23T05:39:29;94348.56;;;7.57;72.04
75051;BME280;63628;47.656;11.310;2023-03-23T05:41:56;94350.47;;;9.20;69.53
75051;BME280;63628;47.656;11.310;2023-03-23T05:44:22;94342.50;;;7.26;74.41
75051;BME280;63628;47.656;11.310;2023-03-23T05:46:48;94347.69;;;7.15;77.00
75051;BME280;63628;47.656;11.310;2023-03-23T05:49:14;94346.97;;;8.33;70.21
75051;BME280;63628;47.656;11.310;2023-03-23T05:51:41;94365.47;;;8.44;72.74
75051;BME280;63628;47.656;11.310;2023-03-23T05:54:08;94344.38;;;7.38;74.74
75051;BME280;63628;47.656;11.310;2023-03-23T05:56:35;94344.50;;;8.61;68.78
75051;BME280;63628;47.656;11.310;2023-03-23T05:59:00;94343.91;;;8.71;70.49
75051;BME280;63628;47.656;11.310;2023-03-23T06:01:28;94352.09;;;9.21;66.55
75051;BME280;63628;47.656;11.310;2023-03-23T06:03:54;94357.34;;;8.57;70.44
75051;BME280;63628;47.656;11.310;2023-03-23T06:06:23;94360.44;;;8.66;70.54
75051;BME280;63628;47.656;11.310;2023-03-23T06:08:49;94357.88;;;8.95;68.13
75051;BME280;63628;47.656;11.310;2023-03-23T06:11:17;94356.31;;;9.22;68.22
75051;BME280;63628;47.656;11.310;2023-03-23T06:13:42;94359.03;;;9.39;68.00
75051;BME280;63628;47.656;11.310;2023-03-23T06:16:08;94370.25;;;9.46;67.24
75051;BME280;63628;47.656;11.310;2023-03-23T06:18:34;94364.78;;;8.72;68.90
75051;BME280;63628;47.656;11.310;2023-03-23T06:21:02;94369.78;;;8.97;67.22
75051;BME280;63628;47.656;11.310;2023-03-23T06:23:27;94361.66;;;8.87;69.44
75051;BME280;63628;47.656;11.310;2023-03-23T06:25:54;94367.72;;;7.64;74.45
75051;BME280;63628;47.656;11.310;2023-03-23T06:28:23;94368.66;;;8.93;69.25
75051;BME280;63628;47.656;11.310;2023-03-23T06:30:49;94361.69;;;9.27;67.92
75051;BME280;63628;47.656;11.310;2023-03-23T06:33:16;94361.66;;;9.39;67.87
75051;BME280;63628;47.656;11.310;2023-03-23T06:35:42;94362.56;;;9.44;67.70
75051;BME280;63628;47.656;11.310;2023-03-23T06:38:08;94363.72;;;9.37;67.27
75051;BME280;63628;47.656;11.310;2023-03-23T06:40:34;94367.38;;;9.47;67.13
75051;BME280;63628;47.656;11.310;2023-03-23T06:43:01;94365.91;;;8.41;73.81
75051;BME280;63628;47.656;11.310;2023-03-23T06:45:28;94359.00;;;8.28;74.11
75051;BME280;63628;47.656;11.310;2023-03-23T06:47:54;94354.16;;;9.19;68.92
75051;BME280;63628;47.656;11.310;2023-03-23T06:50:19;94346.78;;;8.34;74.17
75051;BME280;63628;47.656;11.310;2023-03-23T06:52:46;94336.72;;;9.06;68.95
75051;BME280;63628;47.656;11.310;2023-03-23T06:55:11;94349.31;;;8.64;73.63
75051;BME280;63628;47.656;11.310;2023-03-23T06:57:38;94355.94;;;8.78;70.64
75051;BME280;63628;47.656;11.310;2023-03-23T07:00:05;94354.16;;;9.07;68.91
75051;BME280;63628;47.656;11.310;2023-03-23T07:02:35;94345.75;;;9.22;68.66
75051;BME280;63628;47.656;11.310;2023-03-23T07:05:01;94338.03;;;9.32;67.65
75051;BME280;63628;47.656;11.310;2023-03-23T07:07:29;94333.41;;;9.39;67.32
75051;BME280;63628;47.656;11.310;2023-03-23T07:09:54;94326.75;;;8.97;72.32
75051;BME280;63628;47.656;11.310;2023-03-23T07:12:20;94326.94;;;9.18;69.78
75051;BME280;63628;47.656;11.310;2023-03-23T07:14:47;94334.03;;;8.31;76.00
75051;BME280;63628;47.656;11.310;2023-03-23T07:17:12;94328.13;;;8.99;69.91
75051;BME280;63628;47.656;11.310;2023-03-23T07:19:39;94333.22;;;9.29;68.04
75051;BME280;63628;47.656;11.310;2023-03-23T07:22:07;94322.06;;;9.39;68.26
75051;BME280;63628;47.656;11.310;2023-03-23T07:24:33;94327.91;;;9.41;67.57
75051;BME280;63628;47.656;11.310;2023-03-23T07:26:59;94321.03;;;9.00;75.10
75051;BME280;63628;47.656;11.310;2023-03-23T07:29:24;94318.34;;;8.60;79.30
75051;BME280;63628;47.656;11.310;2023-03-23T07:31:50;94311.84;;;9.02;75.04
75051;BME280;63628;47.656;11.310;2023-03-23T07:34:17;94315.06;;;8.93;76.12
75051;BME280;63628;47.656;11.310;2023-03-23T07:36:45;94318.56;;;9.10;73.36
75051;BME280;63628;47.656;11.310;2023-03-23T07:39:11;94316.53;;;9.40;69.90
75051;BME280;63628;47.656;11.310;2023-03-23T07:41:37;94315.81;;;9.45;68.67
75051;BME280;63628;47.656;11.310;2023-03-23T07:44:03;94316.84;;;9.44;68.53
75051;BME280;63628;47.656;11.310;2023-03-23T07:46:28;94308.00;;;9.50;69.03
75051;BME280;63628;47.656;11.310;2023-03-23T07:48:55;94304.41;;;9.56;67.65
75051;BME280;63628;47.656;11.310;2023-03-23T07:51:21;94304.75;;;9.76;66.94
75051;BME280;63628;47.656;11.310;2023-03-23T07:53:49;94305.91;;;9.52;67.98
75051;BME280;63628;47.656;11.310;2023-03-23T07:56:15;94307.91;;;9.45;68.76
75051;BME280;63628;47.656;11.310;2023-03-23T07:58:44;94317.84;;;9.54;68.17
75051;BME280;63628;47.656;11.310;2023-03-23T08:01:10;94318.47;;;9.45;68.39
75051;BME280;63628;47.656;11.310;2023-03-23T08:03:35;94315.97;;;10.17;67.20
75051;BME280;63628;47.656;11.310;2023-03-23T08:06:01;94316.81;;;10.95;68.04
75051;BME280;63628;47.656;11.310;2023-03-23T08:08:26;94324.00;;;9.89;67.59
75051;BME280;63628;47.656;11.310;2023-03-23T08:10:53;94331.94;;;9.60;67.43
75051;BME280;63628;47.656;11.310;2023-03-23T08:13:19;94338.91;;;9.66;67.47
75051;BME280;63628;47.656;11.310;2023-03-23T08:15:44;94341.94;;;9.58;69.15
75051;BME280;63628;47.656;11.310;2023-03-23T08:18:10;94340.28;;;11.52;69.06
75051;BME280;63628;47.656;11.310;2023-03-23T08:20:36;94338.66;;;11.72;69.37
75051;BME280;63628;47.656;11.310;2023-03-23T08:23:02;94336.56;;;11.74;63.69
75051;BME280;63628;47.656;11.310;2023-03-23T08:25:29;94338.50;;;11.79;61.24
75051;BME280;63628;47.656;11.310;2023-03-23T08:27:59;94327.50;;;11.97;62.67
75051;BME280;63628;47.656;11.310;2023-03-23T08:30:27;94342.63;;;11.04;63.75
75051;BME280;63628;47.656;11.310;2023-03-23T08:32:55;94350.59;;;10.15;66.50
75051;BME280;63628;47.656;11.310;2023-03-23T08:35:21;94345.78;;;10.12;66.93
75051;BME280;63628;47.656;11.310;2023-03-23T08:37:47;94341.25;;;10.41;66.20
75051;BME280;63628;47.656;11.310;2023-03-23T08:40:18;94337.38;;;11.75;63.95
75051;BME280;63628;47.656;11.310;2023-03-23T08:42:45;94339.84;;;11.60;61.95
75051;BME280;63628;47.656;11.310;2023-03-23T08:45:15;94334.63;;;11.92;60.05
75051;BME280;63628;47.656;11.310;2023-03-23T08:47:42;94333.72;;;12.08;62.05
75051;BME280;63628;47.656;11.310;2023-03-23T08:50:10;94336.06;;;12.04;61.00
75051;BME280;63628;47.656;11.310;2023-03-23T08:52:36;94340.03;;;10.88;63.48
75051;BME280;63628;47.656;11.310;2023-03-23T08:55:02;94335.38;;;10.56;65.45
75051;BME280;63628;47.656;11.310;2023-03-23T08:57:28;94338.56;;;10.08;66.95
75051;BME280;63628;47.656;11.310;2023-03-23T08:59:54;94334.81;;;10.04;66.98
75051;BME280;63628;47.656;11.310;2023-03-23T09:02:23;94338.50;;;10.20;68.35
75051;BME280;63628;47.656;11.310;2023-03-23T09:04:49;94337.16;;;10.34;66.72
75051;BME280;63628;47.656;11.310;2023-03-23T09:07:15;94337.69;;;10.02;67.64
75051;BME280;63628;47.656;11.310;2023-03-23T09:09:41;94336.28;;;10.45;66.55
75051;BME280;63628;47.656;11.310;2023-03-23T09:12:07;94346.81;;;10.78;70.98
75051;BME280;63628;47.656;11.310;2023-03-23T09:14:33;94349.38;;;10.06;66.56
75051;BME280;63628;47.656;11.310;2023-03-23T09:16:59;94346.09;;;10.66;65.48
75051;BME280;63628;47.656;11.310;2023-03-23T09:19:26;94345.16;;;10.94;65.35
75051;BME280;63628;47.656;11.310;2023-03-23T09:21:51;94347.41;;;10.30;67.00
75051;BME280;63628;47.656;11.310;2023-03-23T09:24:17;94351.88;;;11.02;71.88
75051;BME280;63628;47.656;11.310;2023-03-23T09:26:42;94350.19;;;12.42;66.29
75051;BME280;63628;47.656;11.310;2023-03-23T09:29:08;94352.66;;;13.53;63.09
75051;BME280;63628;47.656;11.310;2023-03-23T09:31:33;94356.41;;;13.62;61.49
75051;BME280;63628;47.656;11.310;2023-03-23T09:34:02;94349.47;;;13.61;62.20
75051;BME280;63628;47.656;11.310;2023-03-23T09:36:30;94349.03;;;13.80;61.09
75051;BME280;63628;47.656;11.310;2023-03-23T09:38:56;94352.75;;;13.74;59.68
75051;BME280;63628;47.656;11.310;2023-03-23T09:41:46;94347.44;;;13.84;59.66
75051;BME280;63628;47.656;11.310;2023-03-23T09:44:22;94353.84;;;13.98;59.29
75051;BME280;63628;47.656;11.310;2023-03-23T09:46:59;94352.25;;;14.12;57.03
75051;BME280;63628;47.656;11.310;2023-03-23T09:49:32;94356.78;;;14.02;55.04
75051;BME280;63628;47.656;11.310;2023-03-23T09:52:00;94365.84;;;14.16;55.14
75051;BME280;63628;47.656;11.310;2023-03-23T09:54:30;94363.41;;;13.99;56.47
75051;BME280;63628;47.656;11.310;2023-03-23T09:56:59;94358.63;;;13.91;58.21
75051;BME280;63628;47.656;11.310;2023-03-23T09:59:30;94361.53;;;13.89;57.14
75051;BME280;63628;47.656;11.310;2023-03-23T10:02:00;94356.91;;;13.54;57.13
75051;BME280;63628;47.656;11.310;2023-03-23T10:04:34;94358.88;;;13.89;58.17
75051;BME280;63628;47.656;11.310;2023-03-23T10:07:10;94348.47;;;13.73;56.94
75051;BME280;63628;47.656;11.310;2023-03-23T10:09:37;94350.16;;;14.70;57.07
75051;BME280;63628;47.656;11.310;2023-03-23T10:12:09;94349.53;;;15.19;56.87
75051;BME280;63628;47.656;11.310;2023-03-23T10:14:45;94346.91;;;15.09;55.31
75051;BME280;63628;47.656;11.310;2023-03-23T10:17:15;94352.25;;;14.99;54.54
75051;BME280;63628;47.656;11.310;2023-03-23T10:19:47;94353.94;;;12.19;62.68
75051;BME280;63628;47.656;11.310;2023-03-23T10:22:22;94357.03;;;12.06;64.04
75051;BME280;63628;47.656;11.310;2023-03-23T10:25:02;94362.75;;;12.25;65.06
75051;BME280;63628;47.656;11.310;2023-03-23T10:27:33;94359.59;;;13.64;58.75
75051;BME280;63628;47.656;11.310;2023-03-23T10:30:15;94352.75;;;13.84;58.92
75051;BME280;63628;47.656;11.310;2023-03-23T10:32:45;94350.94;;;15.01;54.18
75051;BME280;63628;47.656;11.310;2023-03-23T10:35:18;94354.88;;;13.14;59.34
75051;BME280;63628;47.656;11.310;2023-03-23T10:37:48;94352.63;;;13.48;58.15
75051;BME280;63628;47.656;11.310;2023-03-23T10:40:18;94348.28;;;14.20;56.79
75051;BME280;63628;47.656;11.310;2023-03-23T10:42:45;94349.56;;;15.09;54.41
75051;BME280;63628;47.656;11.310;2023-03-23T10:45:16;94356.00;;;14.98;51.26
75051;BME280;63628;47.656;11.310;2023-03-23T10:47:46;94360.94;;;15.35;52.63
75051;BME280;63628;47.656;11.310;2023-03-23T10:50:15;94350.19;;;15.55;51.30
75051;BME280;63628;47.656;11.310;2023-03-23T10:52:43;94355.34;;;15.31;54.13
75051;BME280;63628;47.656;11.310;2023-03-23T10:55:13;94361.34;;;14.67;55.65
75051;BME280;63628;47.656;11.310;2023-03-23T10:57:42;94366.63;;;13.18;59.03
75051;BME280;63628;47.656;11.310;2023-03-23T11:00:19;94362.94;;;12.87;60.45
75051;BME280;63628;47.656;11.310;2023-03-23T11:02:46;94369.41;;;11.95;63.44
75051;BME280;63628;47.656;11.310;2023-03-23T11:05:18;94366.34;;;12.09;64.24
75051;BME280;63628;47.656;11.310;2023-03-23T11:07:50;94371.66;;;12.78;63.22
75051;BME280;63628;47.656;11.310;2023-03-23T11:10:22;94373.34;;;13.36;59.70
75051;BME280;63628;47.656;11.310;2023-03-23T11:12:49;94366.97;;;12.95;61.62
75051;BME280;63628;47.656;11.310;2023-03-23T11:15:26;94371.03;;;12.01;63.73
75051;BME280;63628;47.656;11.310;2023-03-23T11:18:01;94373.50;;;11.59;65.23
75051;BME280;63628;47.656;11.310;2023-03-23T11:20:28;94368.09;;;13.04;64.38
75051;BME280;63628;47.656;11.310;2023-03-23T11:22:55;94378.19;;;13.54;65.32
75051;BME280;63628;47.656;11.310;2023-03-23T11:25:22;94363.53;;;15.55;59.01
75051;BME280;63628;47.656;11.310;2023-03-23T11:27:49;94368.63;;;16.06;58.60
75051;BME280;63628;47.656;11.310;2023-03-23T11:30:21;94360.84;;;16.54;55.20
75051;BME280;63628;47.656;11.310;2023-03-23T11:32:49;94362.41;;;16.94;54.90
75051;BME280;63628;47.656;11.310;2023-03-23T11:35:20;94359.50;;;17.14;52.02
75051;BME280;63628;47.656;11.310;2023-03-23T11:37:49;94363.28;;;17.37;52.39
75051;BME280;63628;47.656;11.310;2023-03-23T11:40:17;94352.06;;;17.35;50.79
75051;BME280;63628;47.656;11.310;2023-03-23T11:42:46;94350.69;;;17.37;51.37
75051;BME280;63628;47.656;11.310;2023-03-23T11:45:17;94344.53;;;17.37;50.53
75051;BME280;63628;47.656;11.310;2023-03-23T11:47:43;94337.03;;;17.15;48.65
75051;BME280;63628;47.656;11.310;2023-03-23T11:50:17;94345.78;;;17.44;49.24
75051;BME280;63628;47.656;11.310;2023-03-23T11:52:47;94338.13;;;17.62;49.75
75051;BME280;63628;47.656;11.310;2023-03-23T11:55:18;94338.22;;;17.94;50.56
75051;BME280;63628;47.656;11.310;2023-03-23T11:57:45;94336.34;;;17.95;49.24
75051;BME280;63628;47.656;11.310;2023-03-23T12:00:14;94332.09;;;17.94;51.20
75051;BME280;63628;47.656;11.310;2023-03-23T12:05:48;94343.41;;;15.88;51.35
75051;BME280;63628;47.656;11.310;2023-03-23T12:08:29;94341.28;;;17.64;49.15
75051;BME280;63628;47.656;11.310;2023-03-23T12:11:01;94343.00;;;17.79;48.66
75051;BME280;63628;47.656;11.310;2023-03-23T12:13:45;94339.47;;;18.02;46.48
75051;BME280;63628;47.656;11.310;2023-03-23T12:16:30;94346.16;;;18.23;47.54
75051;BME280;63628;47.656;11.310;2023-03-23T12:19:03;94335.91;;;18.44;46.78
75051;BME280;63628;47.656;11.310;2023-03-23T12:21:42;94336.19;;;18.43;48.36
75051;BME280;63628;47.656;11.310;2023-03-23T12:24:17;94326.72;;;18.13;44.48
75051;BME280;63628;47.656;11.310;2023-03-23T12:26:50;94332.78;;;18.18;43.71
75051;BME280;63628;47.656;11.310;2023-03-23T12:29:35;94328.97;;;18.24;43.80
75051;BME280;63628;47.656;11.310;2023-03-23T12:32:23;94327.59;;;18.27;43.82
75051;BME280;63628;47.656;11.310;2023-03-23T12:34:53;94320.56;;;17.51;48.66
75051;BME280;63628;47.656;11.310;2023-03-23T12:37:33;94334.97;;;16.10;54.10
75051;BME280;63628;47.656;11.310;2023-03-23T12:40:09;94325.44;;;17.91;48.90
75051;BME280;63628;47.656;11.310;2023-03-23T12:42:49;94325.56;;;18.19;48.12
75051;BME280;63628;47.656;11.310;2023-03-23T12:45:24;94322.34;;;18.54;45.77
75051;BME280;63628;47.656;11.310;2023-03-23T12:47:54;94317.47;;;18.56;44.69
75051;BME280;63628;47.656;11.310;2023-03-23T12:50:27;94316.13;;;18.40;41.71
75051;BME280;63628;47.656;11.310;2023-03-23T12:52:58;94320.50;;;18.36;43.84
75051;BME280;63628;47.656;11.310;2023-03-23T12:55:31;94313.03;;;18.14;42.46
75051;BME280;63628;47.656;11.310;2023-03-23T12:58:01;94306.91;;;17.52;43.58
75051;BME280;63628;47.656;11.310;2023-03-23T13:00:30;94301.41;;;17.86;47.58
75051;BME280;63628;47.656;11.310;2023-03-23T13:03:02;94303.56;;;18.22;46.37
75051;BME280;63628;47.656;11.310;2023-03-23T13:05:40;94297.81;;;15.79;56.04
75051;BME280;63628;47.656;11.310;2023-03-23T13:08:15;94293.28;;;18.10;46.47
75051;BME280;63628;47.656;11.310;2023-03-23T13:10:45;94296.75;;;18.29;46.28